Time;durP1;ratioP1;P1;durP2;ratioP2;P2;SDS_P1;SDS_P2;PMS_P1;PMS_P2;Temp;Humidity;BMP_temperature;BMP_pressure;BME280_temperature;BME280_humidity;BME280_pressure;Samples;Min_cycle;Max_cycle;Signal;HPM_P1;HPM_P2
2022/05/04 00:01:28;;;;;;;8.17;5.20;;;;;;;12.39;66.58;100923.23;5148434;57;1137159;-75
2022/05/04 00:06:34;;;;;;;10.57;5.13;;;;;;;12.30;66.84;100925.28;5162694;56;1136919;-75
2022/05/04 00:11:41;;;;;;;5.90;4.70;;;;;;;12.26;67.02;100928.66;5144809;57;1138942;-73
2022/05/04 00:16:47;;;;;;;8.37;5.07;;;;;;;12.31;67.48;100935.78;5138663;57;1137193;-72
2022/05/04 00:21:52;;;;;;;5.87;5.17;;;;;;;12.26;67.75;100926.48;5138729;57;1136945;-74
2022/05/04 00:26:58;;;;;;;7.60;5.00;;;;;;;12.21;68.06;100929.52;5138641;57;1137006;-74
2022/05/04 00:32:03;;;;;;;6.27;4.57;;;;;;;12.19;68.68;100925.29;5158827;56;1137288;-73
2022/05/04 00:37:09;;;;;;;6.60;5.00;;;;;;;12.22;68.81;100939.64;5164341;56;1136813;-74
2022/05/04 00:42:22;;;;;;;8.10;5.10;;;;;;;12.27;68.74;100941.44;5164297;56;1136829;-75
2022/05/04 00:47:28;;;;;;;6.03;5.00;;;;;;;12.41;69.09;100945.66;5164728;56;1136919;-75
2022/05/04 00:52:40;;;;;;;12.67;5.90;;;;;;;12.47;68.74;100947.84;5164131;56;1136943;-73
2022/05/04 01:03:10;;;;;;;8.33;6.07;;;;;;;12.57;69.56;100944.81;5133350;57;1137227;-74
2022/05/04 01:08:16;;;;;;;7.87;6.00;;;;;;;12.52;69.93;100936.39;5152586;57;21205;-75
2022/05/04 01:13:22;;;;;;;9.47;6.17;;;;;;;12.45;70.01;100937.83;5132997;57;1134831;-73
2022/05/04 01:18:28;;;;;;;10.03;6.90;;;;;;;12.39;70.27;100947.09;5131225;57;1139221;-72
2022/05/04 01:23:35;;;;;;;7.37;6.37;;;;;;;12.26;70.49;100945.05;5211469;56;1141248;-74
2022/05/04 01:28:41;;;;;;;10.33;7.90;;;;;;;12.21;70.72;100945.42;5132842;57;1138957;-75
2022/05/04 01:33:47;;;;;;;9.33;7.43;;;;;;;12.11;70.84;100949.73;5132590;57;1141315;-72
2022/05/04 01:38:53;;;;;;;11.13;8.13;;;;;;;12.10;71.69;100946.72;5141270;56;1139006;-73
2022/05/04 01:43:59;;;;;;;14.80;8.80;;;;;;;12.15;71.55;100940.59;5218410;56;1141157;-75
2022/05/04 01:49:05;;;;;;;14.00;8.73;;;;;;;12.12;71.61;100945.27;5220422;56;1141136;-75
2022/05/04 01:54:11;;;;;;;15.60;9.20;;;;;;;12.06;71.87;100955.05;5221980;56;1141320;-73
2022/05/04 01:59:16;;;;;;;15.77;9.20;;;;;;;12.01;71.94;100950.56;5256728;55;1141096;-73
2022/05/04 02:04:24;;;;;;;15.27;9.27;;;;;;;11.91;72.26;100941.16;5310686;55;1141076;-72
2022/05/04 02:09:30;;;;;;;13.80;9.30;;;;;;;11.89;72.59;100947.90;5310561;55;1141073;-72
2022/05/04 02:14:36;;;;;;;12.10;9.63;;;;;;;11.74;72.42;100945.05;5310652;55;1141333;-72
2022/05/04 02:19:42;;;;;;;16.77;8.77;;;;;;;11.61;72.77;100946.91;5310624;55;1141100;-76
2022/05/04 02:24:48;;;;;;;13.87;9.07;;;;;;;11.51;73.08;100960.48;5310474;55;1141116;-74
2022/05/04 02:29:53;;;;;;;15.13;10.17;;;;;;;11.54;73.23;100953.17;5310397;55;1141055;-73
2022/05/04 02:40:24;;;;;;;13.03;9.27;;;;;;;11.55;73.83;100965.93;5310290;55;1143226;-75
2022/05/04 02:45:31;;;;;;;15.00;9.80;;;;;;;11.52;73.67;100958.20;5310300;55;1141102;-73
2022/05/04 02:50:38;;;;;;;20.07;10.70;;;;;;;11.26;73.70;100963.64;5307624;55;1141138;-74
2022/05/04 02:55:43;;;;;;;13.27;9.37;;;;;;;11.20;74.25;100968.52;5306825;55;1143441;-75
2022/05/04 03:00:49;;;;;;;17.15;8.90;;;;;;;11.16;74.48;100967.05;5244477;55;1141090;-73
2022/05/04 03:05:55;;;;;;;11.43;8.40;;;;;;;11.14;74.46;100971.16;5218162;56;1141089;-75
2022/05/04 03:16:23;;;;;;;11.83;8.70;;;;;;;11.27;74.96;100974.59;5218553;56;1141093;-73
2022/05/04 03:21:29;;;;;;;14.07;8.23;;;;;;;11.34;74.86;100980.75;5217996;56;1141124;-73
2022/05/04 03:26:36;;;;;;;11.53;8.13;;;;;;;11.35;75.03;100979.31;5218166;56;1141254;-75
2022/05/04 03:31:41;;;;;;;12.83;7.37;;;;;;;11.13;74.67;100974.77;5229474;55;1141338;-74
2022/05/04 03:36:47;;;;;;;9.97;8.17;;;;;;;10.99;75.33;100972.27;5245700;55;1141059;-74
2022/05/04 03:41:53;;;;;;;13.90;8.57;;;;;;;10.82;76.20;100976.13;5263912;55;1138960;-74
2022/05/04 03:46:59;;;;;;;14.37;8.07;;;;;;;10.77;76.38;100982.69;5246113;55;1141053;-74
2022/05/04 03:52:06;;;;;;;28.70;10.37;;;;;;;10.75;76.54;100988.08;5258560;55;1141242;-74
2022/05/04 03:57:11;;;;;;;16.03;9.33;;;;;;;10.67;76.62;100993.56;5231728;55;1141060;-72
2022/05/04 04:02:17;;;;;;;21.37;7.47;;;;;;;10.61;77.40;100996.63;5307631;55;1139002;-73
2022/05/04 04:07:23;;;;;;;12.47;9.10;;;;;;;10.60;77.82;100994.92;5307957;55;1139042;-71
2022/05/04 04:12:29;;;;;;;22.63;10.10;;;;;;;10.49;78.09;100998.33;5308009;55;1139261;-74
2022/05/04 04:17:35;;;;;;;17.75;9.63;;;;;;;10.49;78.22;101008.91;5307742;55;1141331;-71
2022/05/04 04:22:40;;;;;;;14.80;8.20;;;;;;;10.52;79.05;101006.91;5307725;55;1139250;-71
2022/05/04 04:27:46;;;;;;;13.33;9.27;;;;;;;10.46;79.07;101010.44;5307988;55;1139032;-72
2022/05/04 04:32:52;;;;;;;12.40;7.90;;;;;;;10.43;79.33;101022.06;5300281;55;1139038;-75
2022/05/04 04:37:59;;;;;;;16.87;9.33;;;;;;;10.46;79.89;101013.08;5270364;55;1138971;-73
2022/05/04 04:43:05;;;;;;;18.30;9.17;;;;;;;10.42;80.29;101024.81;5219070;55;1138973;-71
2022/05/04 04:48:11;;;;;;;17.97;8.90;;;;;;;10.42;80.26;101027.45;5078608;57;1139029;-71
2022/05/04 04:53:17;;;;;;;13.53;8.57;;;;;;;10.51;80.46;101030.34;5132757;56;1139070;-73
2022/05/04 04:58:25;;;;;;;18.17;9.00;;;;;;;10.55;81.31;101031.79;5252583;55;1138978;-74
2022/05/04 05:03:31;;;;;;;9.83;6.90;;;;;;;10.53;80.55;101030.23;5218592;56;1139057;-73
2022/05/04 05:08:37;;;;;;;17.30;8.77;;;;;;;10.53;81.30;101031.55;5218731;56;1137123;-74
2022/05/04 05:19:08;;;;;;;17.90;8.68;;;;;;;10.55;81.58;101036.23;5279906;55;1141154;-73
2022/05/04 05:24:14;;;;;;;16.40;7.93;;;;;;;10.57;81.68;101046.23;5177774;55;1141225;-75
2022/05/04 05:29:19;;;;;;;16.57;8.60;;;;;;;10.66;81.62;101052.70;5307364;55;1141300;-73
2022/05/04 05:34:28;;;;;;;24.83;9.17;;;;;;;10.70;81.54;101050.20;5290105;55;1141255;-73
2022/05/04 05:39:33;;;;;;;10.03;6.93;;;;;;;10.74;81.84;101044.59;5231004;55;1141007;-72
2022/05/04 05:44:38;;;;;;;13.47;6.67;;;;;;;10.90;82.26;101053.63;5218602;56;1141168;-72
2022/05/04 05:49:44;;;;;;;22.20;8.30;;;;;;;10.97;81.53;101056.70;5218532;56;1141008;-72
2022/05/04 05:54:51;;;;;;;15.07;8.73;;;;;;;10.84;81.19;101051.43;5218485;56;1141021;-74
2022/05/04 05:59:57;;;;;;;23.37;8.37;;;;;;;10.86;81.43;101053.46;5236226;55;1141050;-73
2022/05/04 06:05:03;;;;;;;66.23;10.67;;;;;;;10.88;81.45;101053.73;5252106;55;1141090;-73
2022/05/04 06:10:10;;;;;;;19.50;7.53;;;;;;;10.90;81.74;101041.23;5251926;55;1143294;-75
2022/05/04 06:15:16;;;;;;;15.53;7.90;;;;;;;10.99;82.21;101043.73;5252085;55;1141297;-72
2022/05/04 06:20:23;;;;;;;15.13;8.23;;;;;;;11.09;82.00;101049.20;5251843;55;1141114;-73
2022/05/04 06:25:29;;;;;;;19.97;8.07;;;;;;;11.36;82.81;101069.73;5251915;55;1141156;-74
2022/05/04 06:35:58;;;;;;;17.55;8.13;;;;;;;11.64;80.61;101068.56;5260959;55;1141071;-74
2022/05/04 06:41:05;;;;;;;15.53;7.87;;;;;;;11.77;80.10;101058.78;5256952;55;1141070;-72
2022/05/04 06:46:10;;;;;;;10.93;7.10;;;;;;;11.82;79.27;101061.09;5248555;55;1141027;-74
2022/05/04 06:51:17;;;;;;;13.17;7.80;;;;;;;11.93;79.66;101061.14;5268307;55;1141027;-75
2022/05/04 06:56:22;;;;;;;14.40;7.87;;;;;;;12.06;78.96;101062.42;5257686;55;1141032;-73
2022/05/04 07:01:28;;;;;;;13.00;7.23;;;;;;;12.19;79.37;101065.35;5246434;55;1141304;-74
2022/05/04 07:06:33;;;;;;;15.23;7.90;;;;;;;12.36;78.17;101070.70;5258861;55;1141045;-72
2022/05/04 07:11:39;;;;;;;16.13;8.27;;;;;;;12.47;77.28;101082.66;5259617;55;1141026;-76
2022/05/04 07:16:45;;;;;;;11.37;7.60;;;;;;;12.58;76.83;101085.33;5254289;55;1141287;-75
2022/05/04 07:21:51;;;;;;;11.53;7.40;;;;;;;12.60;75.08;101084.73;5252475;55;1141176;-74
2022/05/04 07:26:57;;;;;;;10.63;6.83;;;;;;;12.70;75.01;101080.87;5284996;55;1141062;-75
2022/05/04 07:32:04;;;;;;;11.40;6.13;;;;;;;12.96;74.58;101073.07;5295313;55;1141076;-75
2022/05/04 07:37:10;;;;;;;9.63;3.80;;;;;;;13.33;75.88;101077.64;5265969;55;1141245;-75
2022/05/04 07:42:27;;;;;;;6.83;6.20;;;;;;;13.63;72.22;101082.30;5185632;56;1138919;-74
2022/05/04 07:47:35;;;;;;;11.50;6.03;;;;;;;13.90;72.96;101090.33;5186327;56;1139165;-75
2022/05/04 07:52:42;;;;;;;16.37;6.73;;;;;;;14.16;70.66;101086.83;5193798;56;1141027;-73
2022/05/04 07:57:48;;;;;;;11.37;6.77;;;;;;;14.36;69.25;101075.37;5178057;56;1141334;-74
2022/05/04 08:08:17;;;;;;;;;;;;;;;14.72;69.63;101086.04;5185389;56;1138950;-75
2022/05/04 08:13:23;;;;;;;14.97;6.83;;;;;;;14.94;69.70;101089.04;5160000;56;974207;-73
2022/05/04 08:18:29;;;;;;;14.47;6.40;;;;;;;15.10;67.32;101088.06;5163865;56;1136886;-74
2022/05/04 08:23:35;;;;;;;12.10;6.37;;;;;;;15.39;68.71;101097.00;5206524;56;1139110;-74
2022/05/04 08:28:41;;;;;;;9.67;5.30;;;;;;;15.41;66.74;101092.86;5217543;56;1138917;-72
2022/05/04 08:33:47;;;;;;;14.10;5.63;;;;;;;15.55;65.70;101095.17;5151114;56;1136310;-73
2022/05/04 08:38:53;;;;;;;13.23;4.97;;;;;;;15.68;65.29;101097.58;5193363;56;1138385;-74
2022/05/04 08:44:00;;;;;;;9.77;4.57;;;;;;;15.76;62.31;101091.05;5191080;56;1139025;-72
2022/05/04 08:49:07;;;;;;;6.97;5.80;;;;;;;15.81;64.02;101083.00;5164170;56;1136866;-72
2022/05/04 08:54:13;;;;;;;12.40;5.17;;;;;;;15.88;62.21;101083.30;5158386;56;1137091;-73
2022/05/04 08:59:18;;;;;;;6.27;4.40;;;;;;;15.92;61.38;101089.17;5213600;56;1139187;-74
2022/05/04 09:04:24;;;;;;;7.50;4.55;;;;;;;15.93;60.82;101089.53;5219738;56;1136906;-74
2022/05/04 09:09:34;;;;;;;6.93;5.40;;;;;;;15.98;60.03;101081.95;5208181;56;1136924;-73
2022/05/04 09:14:41;;;;;;;13.57;4.47;;;;;;;16.01;61.35;101073.68;5191576;56;1136923;-72
2022/05/04 09:25:23;;;;;;;19.70;5.23;;;;;;;16.05;60.01;101077.73;5219797;56;1141090;-75
2022/05/04 09:30:29;;;;;;;15.27;5.40;;;;;;;15.92;59.55;101075.34;5217641;56;1141173;-74
2022/05/04 09:35:35;;;;;;;27.43;5.97;;;;;;;15.85;60.93;101064.05;5219033;56;1141056;-75
2022/05/04 09:46:03;;;;;;;;;;;;;;;15.96;60.10;101063.91;5227843;55;1141149;-74
2022/05/04 09:51:10;;;;;;;44.63;6.47;;;;;;;16.06;60.36;101054.91;5245192;55;976306;-74
2022/05/04 09:56:16;;;;;;;34.67;5.03;;;;;;;16.05;60.39;101059.05;5198844;56;1139231;-73
2022/05/04 10:01:22;;;;;;;18.27;4.53;;;;;;;16.09;61.02;101050.63;5216837;56;1141124;-73
2022/05/04 10:06:29;;;;;;;33.70;5.07;;;;;;;16.44;63.32;101055.37;5224113;55;1141098;-72
2022/05/04 10:11:36;;;;;;;18.37;4.20;;;;;;;16.73;60.95;101054.48;5237779;56;1141020;-74
2022/05/04 10:17:02;;;;;;;8.97;3.90;;;;;;;17.03;61.26;101058.23;5251624;55;1141075;-73
2022/05/04 10:22:11;;;;;;;27.37;3.73;;;;;;;17.02;59.23;101045.85;5168442;55;1138998;-73
2022/05/04 10:27:23;;;;;;;17.27;3.60;;;;;;;17.03;59.52;101041.34;5164969;56;1141083;-75
2022/05/04 10:32:42;;;;;;;23.40;4.57;;;;;;;17.07;58.86;101039.58;5202590;55;1141098;-75
2022/05/04 10:37:59;;;;;;;8.80;3.40;;;;;;;16.98;57.99;101036.44;5190599;56;1141059;-74
2022/05/04 10:43:12;;;;;;;12.23;3.80;;;;;;;17.31;58.11;101034.16;5228151;55;1138966;-75
2022/05/04 10:48:26;;;;;;;10.00;3.10;;;;;;;17.46;55.91;101030.83;5229565;56;1141052;-73
2022/05/04 10:53:42;;;;;;;6.23;3.00;;;;;;;17.71;55.62;101018.59;5237855;56;1141150;-73
2022/05/04 10:59:02;;;;;;;40.30;4.87;;;;;;;18.06;55.11;101013.69;5204468;56;1137091;-73
2022/05/04 11:04:17;;;;;;;3.53;2.63;;;;;;;18.14;54.04;101015.61;5202827;56;1139063;-73
2022/05/04 11:09:31;;;;;;;18.05;3.90;;;;;;;18.06;52.41;101013.69;5162591;56;1136805;-73
2022/05/04 11:14:32;;;;;;;7.97;2.40;;;;;;;17.87;51.72;101013.89;5163560;56;1138987;-73
2022/05/04 11:19:45;;;;;;;4.07;2.90;;;;;;;17.76;52.92;101014.94;5165147;56;1136872;-73
2022/05/04 11:24:50;;;;;;;;;;;;;;;17.73;51.66;101020.59;5168609;56;1136929;-73
2022/05/04 11:30:02;;;;;;;20.17;2.73;;;;;;;18.05;52.39;101009.33;5167223;56;974149;-74
2022/05/04 11:35:14;;;;;;;3.10;2.43;;;;;;;18.48;53.28;101001.79;5155166;56;1136957;-74
2022/05/04 11:40:20;;;;;;;12.85;2.52;;;;;;;18.90;51.87;101002.36;5227829;55;1134988;-75
2022/05/04 11:45:27;;;;;;;14.75;3.12;;;;;;;19.07;49.53;101004.11;5247083;56;1141295;-75
2022/05/04 11:50:33;;;;;;;12.83;3.27;;;;;;;19.00;49.77;101003.06;5075578;56;1141014;-75
2022/05/04 11:55:38;;;;;;;11.63;3.02;;;;;;;18.92;49.54;101005.22;5212775;56;1141393;-73
2022/05/04 12:00:45;;;;;;;5.50;2.77;;;;;;;18.83;48.16;100999.97;5159743;56;1141042;-73
2022/05/04 12:05:51;;;;;;;3.63;2.10;;;;;;;18.78;48.47;100995.61;5164649;56;1139307;-73
2022/05/04 12:10:57;;;;;;;9.95;2.42;;;;;;;18.88;48.09;100990.95;5164268;56;1138877;-74
2022/05/04 12:16:04;;;;;;;2.87;2.35;;;;;;;18.93;48.37;100988.64;5164983;56;1138997;-73
2022/05/04 12:21:16;;;;;;;10.73;2.27;;;;;;;19.10;47.95;100987.67;5156147;56;1139282;-73
2022/05/04 12:26:24;;;;;;;7.37;2.60;;;;;;;19.15;45.92;100975.13;5113322;57;1141057;-73
2022/05/04 12:36:55;;;;;;;20.15;2.95;;;;;;;18.80;46.70;100972.98;5161516;56;1138984;-73
2022/05/04 12:42:03;;;;;;;2.40;1.98;;;;;;;18.73;46.78;100967.95;5149589;56;1141374;-75
2022/05/04 12:47:08;;;;;;;53.75;6.10;;;;;;;18.93;47.43;100957.81;5112601;56;1139231;-74
2022/05/04 12:52:14;;;;;;;3.33;2.42;;;;;;;19.14;47.32;100950.66;5127078;56;1141096;-74
2022/05/04 12:57:20;;;;;;;62.15;5.58;;;;;;;19.32;47.01;100947.34;5153672;55;1138952;-76
2022/05/04 13:02:25;;;;;;;9.83;2.45;;;;;;;19.59;47.32;100945.72;5220682;55;1141203;-75
2022/05/04 13:07:31;;;;;;;6.22;2.70;;;;;;;19.89;46.04;100944.71;5250066;55;1139310;-73
2022/05/04 13:12:37;;;;;;;3.87;3.00;;;;;;;20.14;43.61;100938.83;5255557;55;1138964;-74
2022/05/04 13:17:43;;;;;;;5.25;2.33;;;;;;;20.16;43.59;100936.31;5253687;55;1139175;-75
2022/05/04 13:22:48;;;;;;;16.10;2.77;;;;;;;20.18;43.86;100938.80;5221669;56;1138960;-74
2022/05/04 13:27:54;;;;;;;7.30;4.65;;;;;;;20.13;43.76;100934.46;5182433;55;1141065;-74
2022/05/04 13:33:01;;;;;;;8.28;2.85;;;;;;;19.91;41.26;100924.75;5182360;55;1138957;-75
2022/05/04 13:38:07;;;;;;;11.55;3.08;;;;;;;19.64;40.33;100928.63;5215521;55;1139303;-72
2022/05/04 13:43:14;;;;;;;15.38;6.05;;;;;;;19.39;42.04;100928.77;5254456;55;1141065;-73
2022/05/04 13:48:19;;;;;;;12.73;11.12;;;;;;;19.33;43.27;100928.91;5228015;55;1141392;-74
2022/05/04 13:53:25;;;;;;;18.23;4.33;;;;;;;19.32;43.56;100926.73;5205145;56;1143156;-74
2022/05/04 13:58:31;;;;;;;3.12;2.67;;;;;;;19.27;44.06;100919.67;5184576;56;1141072;-76
2022/05/04 14:03:37;;;;;;;27.60;3.95;;;;;;;19.35;44.56;100919.36;5261783;55;1139015;-75
2022/05/04 14:08:43;;;;;;;23.83;3.05;;;;;;;19.29;43.78;100916.33;5282204;55;1141083;-74
2022/05/04 14:13:49;;;;;;;11.40;2.92;;;;;;;19.28;44.37;100911.13;5284186;55;1141300;-75
2022/05/04 14:18:55;;;;;;;7.58;3.12;;;;;;;19.41;44.72;100904.77;5280341;55;1141158;-72
2022/05/04 14:24:01;;;;;;;18.52;3.47;;;;;;;19.43;42.77;100897.39;5221795;55;1139151;-76
2022/05/04 14:29:07;;;;;;;7.55;2.90;;;;;;;19.48;44.62;100891.53;5221716;55;1141102;-74
2022/05/04 14:34:13;;;;;;;9.75;2.62;;;;;;;19.43;44.22;100886.66;5275441;55;1139140;-76
2022/05/04 14:39:19;;;;;;;11.12;2.55;;;;;;;19.61;44.85;100881.16;5310347;55;1139006;-73
2022/05/04 14:44:24;;;;;;;14.18;2.90;;;;;;;19.90;44.94;100872.06;5310427;55;1139446;-76
2022/05/04 14:49:30;;;;;;;7.42;3.40;;;;;;;20.08;43.75;100871.86;5277585;55;1139034;-75
2022/05/04 14:54:35;;;;;;;5.30;2.30;;;;;;;20.14;41.69;100875.21;5200247;56;1137223;-73
2022/05/04 14:59:41;;;;;;;15.70;2.75;;;;;;;19.96;39.97;100874.58;5174353;56;1136762;-74
2022/05/04 15:05:03;;;;;;;5.53;2.75;;;;;;;19.79;41.64;100871.08;5185417;56;1139239;-76
2022/05/04 15:10:10;;;;;;;9.33;2.55;;;;;;;19.72;41.40;100874.60;5147982;56;1136921;-76
2022/05/04 15:15:15;;;;;;;4.55;2.52;;;;;;;19.60;41.10;100874.95;5142313;57;1136896;-76
2022/05/04 15:20:21;;;;;;;18.27;9.70;;;;;;;19.50;41.49;100868.94;5142766;57;1137203;-73
2022/05/04 15:25:27;;;;;;;43.92;25.52;;;;;;;19.48;40.64;100864.70;5173491;56;1139049;-74
2022/05/04 15:30:35;;;;;;;8.13;3.67;;;;;;;19.47;41.06;100863.87;5217635;56;1141280;-74
2022/05/04 15:35:41;;;;;;;5.97;3.47;;;;;;;19.54;41.17;100863.58;5218265;56;1136922;-74
2022/05/04 15:40:47;;;;;;;3.27;2.05;;;;;;;19.65;39.88;100859.70;5218048;56;1136910;-73
2022/05/04 15:45:53;;;;;;;13.25;5.15;;;;;;;19.66;40.39;100863.56;5218092;56;1137159;-76
2022/05/04 15:50:59;;;;;;;22.55;13.88;;;;;;;19.57;39.22;100863.21;5218065;56;1139316;-74
2022/05/04 15:56:05;;;;;;;29.45;17.30;;;;;;;19.48;40.16;100860.17;5217852;56;1141120;-76
2022/05/04 16:01:11;;;;;;;44.63;22.73;;;;;;;19.47;40.27;100860.34;5151732;56;1139013;-72
2022/05/04 16:06:17;;;;;;;15.48;9.20;;;;;;;19.47;40.73;100861.69;5131806;56;1216396;-73
2022/05/04 16:11:23;;;;;;;55.67;29.48;;;;;;;19.56;39.97;100853.98;5180201;55;1141066;-76
2022/05/04 16:16:29;;;;;;;8.17;3.60;;;;;;;19.61;40.91;100852.48;5183357;56;1143490;-75
2022/05/04 16:21:44;;;;;;;8.60;3.40;;;;;;;19.56;39.92;100852.64;5184560;56;1138893;-74
2022/05/04 16:26:51;;;;;;;9.13;3.77;;;;;;;19.51;39.98;100853.67;5189283;56;1139006;-75
2022/05/04 16:31:57;;;;;;;2.83;2.42;;;;;;;19.60;41.06;100845.94;5219085;56;1139285;-77
2022/05/04 16:37:03;;;;;;;12.88;4.70;;;;;;;19.65;40.42;100842.26;5214735;56;1138948;-75
2022/05/04 16:42:09;;;;;;;12.40;5.28;;;;;;;19.63;40.69;100838.90;5219167;56;1141110;-75
2022/05/04 16:47:16;;;;;;;7.97;4.37;;;;;;;19.54;40.52;100838.08;5219154;56;1141078;-77
2022/05/04 16:52:22;;;;;;;15.00;9.90;;;;;;;19.40;40.28;100835.22;5219382;56;1138909;-73
2022/05/04 16:57:27;;;;;;;10.93;3.22;;;;;;;19.32;40.13;100838.22;5219627;56;1141211;-76
2022/05/04 17:02:34;;;;;;;7.17;3.05;;;;;;;19.30;39.69;100836.70;5219169;56;1141416;-76
2022/05/04 17:07:40;;;;;;;13.38;3.34;;;;;;;19.20;40.24;100832.86;5216302;56;1138977;-75
2022/05/04 17:12:46;;;;;;;9.05;4.58;;;;;;;19.16;40.74;100838.71;5241283;55;1141332;-74
2022/05/04 17:17:52;;;;;;;7.83;5.97;;;;;;;19.05;40.38;100837.20;5308521;55;1139013;-76
2022/05/04 17:22:58;;;;;;;27.37;16.90;;;;;;;18.93;40.82;100829.16;5308313;55;1139263;-78
2022/05/04 17:28:04;;;;;;;12.90;10.28;;;;;;;18.85;41.06;100833.98;5308189;55;1143191;-76
2022/05/04 17:38:35;;;;;;;27.00;10.10;;;;;;;18.74;41.98;100830.78;5308371;55;1141090;-75
2022/05/04 17:43:41;;;;;;;25.43;6.60;;;;;;;18.71;42.40;100839.15;5308286;55;1143088;-75
2022/05/04 17:48:46;;;;;;;18.02;6.15;;;;;;;18.62;42.56;100843.66;5308228;55;1141058;-74
2022/05/04 17:53:53;;;;;;;18.33;6.60;;;;;;;18.53;42.88;100844.58;5308227;55;1141314;-74
2022/05/04 17:58:59;;;;;;;38.53;12.87;;;;;;;18.45;43.52;100845.91;5308434;55;1141081;-75
2022/05/04 18:04:06;;;;;;;36.03;12.65;;;;;;;18.36;43.77;100854.89;5308066;55;1143222;-78
2022/05/04 18:09:12;;;;;;;21.97;8.50;;;;;;;18.20;44.20;100859.67;5308160;55;1143148;-76
2022/05/04 18:14:19;;;;;;;23.38;12.23;;;;;;;18.05;44.47;100852.73;5262748;55;1141056;-73
2022/05/04 18:19:25;;;;;;;29.27;12.20;;;;;;;17.98;44.75;100857.56;5219506;56;1143242;-77
2022/05/04 18:24:32;;;;;;;31.50;12.30;;;;;;;17.90;45.02;100866.37;5219604;56;1143114;-75
2022/05/04 18:29:37;;;;;;;30.63;8.73;;;;;;;17.85;45.23;100868.70;5170928;56;1143329;-76
2022/05/04 18:34:43;;;;;;;44.43;10.03;;;;;;;17.75;45.41;100867.44;5133758;56;1141037;-76
2022/05/04 18:39:48;;;;;;;34.43;8.00;;;;;;;17.63;45.62;100875.36;5133694;56;1143404;-75
2022/05/04 18:44:54;;;;;;;22.43;7.10;;;;;;;17.56;45.96;100876.98;5133826;56;1141080;-77
2022/05/04 18:50:00;;;;;;;20.53;7.93;;;;;;;17.40;46.16;100879.03;5133602;56;1141053;-74
2022/05/04 18:55:12;;;;;;;27.66;9.56;;;;;;;17.28;46.40;100882.07;5133638;56;1141058;-77
2022/05/04 19:00:14;;;;;;;18.57;9.23;;;;;;;17.16;46.69;100887.66;5132510;56;1141247;-76
2022/05/04 19:05:20;;;;;;;17.90;5.60;;;;;;;17.01;46.98;100891.84;5133637;56;1138948;-75
2022/05/04 19:10:26;;;;;;;15.60;5.07;;;;;;;16.81;47.30;100891.13;5133592;56;1138918;-75
2022/05/04 19:15:33;;;;;;;28.23;4.83;;;;;;;16.64;47.69;100891.95;5133663;56;1139003;-78
2022/05/04 19:20:39;;;;;;;32.17;5.63;;;;;;;16.46;48.14;100901.22;5133654;56;1139112;-76
2022/05/04 19:25:45;;;;;;;11.73;5.20;;;;;;;16.32;48.60;100903.03;5133571;56;1139041;-76
2022/05/04 19:30:51;;;;;;;13.87;5.87;;;;;;;16.28;49.01;100905.64;5154879;56;1138979;-74
2022/05/04 19:35:57;;;;;;;21.07;7.13;;;;;;;16.17;49.54;100912.00;5155913;56;1138990;-78
2022/05/04 19:41:04;;;;;;;48.00;9.17;;;;;;;16.17;49.54;100912.00;5155830;56;1138964;-75
2022/05/04 19:46:09;;;;;;;17.57;4.67;;;;;;;16.09;49.44;100913.20;5155928;56;1138961;-76
2022/05/04 19:51:15;;;;;;;14.50;6.10;;;;;;;16.04;49.72;100912.80;5155690;56;1139115;-75
2022/05/04 19:56:21;;;;;;;13.73;5.83;;;;;;;15.98;49.78;100915.22;5155783;56;1139029;-74
2022/05/04 20:01:29;;;;;;;23.97;9.20;;;;;;;15.95;50.01;100922.16;5155837;56;1138976;-74
2022/05/04 20:06:34;;;;;;;16.37;11.33;;;;;;;15.89;50.13;100920.90;5123948;57;1139006;-72
2022/05/04 20:11:40;;;;;;;26.87;13.90;;;;;;;15.79;50.13;100920.92;5124049;57;1141057;-73
2022/05/04 20:16:47;;;;;;;15.93;8.40;;;;;;;15.66;50.51;100919.05;5025394;57;1141030;-72
2022/05/04 20:21:53;;;;;;;17.67;8.73;;;;;;;15.48;50.70;100920.71;5088001;58;1139053;-72
2022/05/04 20:26:59;;;;;;;15.43;7.70;;;;;;;15.33;51.22;100917.63;5091788;58;1139106;-74
2022/05/04 20:32:06;;;;;;;20.70;7.20;;;;;;;15.26;51.58;100925.00;5221010;56;1136983;-73
2022/05/04 20:37:12;;;;;;;8.10;6.03;;;;;;;15.18;51.74;100925.68;5252318;55;1136945;-75
2022/05/04 20:42:19;;;;;;;9.30;5.57;;;;;;;15.14;51.97;100932.26;5252432;56;1138927;-73
2022/05/04 20:47:24;;;;;;;12.90;6.23;;;;;;;15.02;52.30;100936.03;5203836;56;1139586;-74
2022/05/04 20:52:30;;;;;;;12.40;5.60;;;;;;;14.93;52.43;100930.20;5159863;56;1141072;-74
2022/05/04 20:57:36;;;;;;;7.60;6.03;;;;;;;14.81;52.48;100936.14;5176601;56;1141027;-74
2022/05/04 21:02:42;;;;;;;14.57;5.63;;;;;;;14.69;52.82;100936.71;5218844;56;1138995;-74
2022/05/04 21:07:48;;;;;;;18.80;5.83;;;;;;;14.64;52.80;100934.12;5218747;55;1141135;-73
2022/05/04 21:12:54;;;;;;;9.87;5.03;;;;;;;14.60;52.92;100934.03;5217302;55;1141221;-72
2022/05/04 21:18:01;;;;;;;9.63;5.30;;;;;;;14.56;52.82;100937.93;5188274;56;1138933;-71
2022/05/04 21:23:09;;;;;;;15.83;6.23;;;;;;;14.52;52.91;100939.16;5161238;56;1139228;-72
2022/05/04 21:28:15;;;;;;;9.73;5.70;;;;;;;14.48;53.02;100935.95;5161928;56;1140970;-71
2022/05/04 21:33:22;;;;;;;11.10;4.87;;;;;;;14.40;53.01;100943.75;5174598;56;1139070;-74
2022/05/04 21:38:28;;;;;;;9.20;5.00;;;;;;;14.34;53.12;100941.12;5164627;56;1141062;-71
2022/05/04 21:43:33;;;;;;;6.57;4.50;;;;;;;14.33;53.25;100935.44;5152864;56;1138921;-71
2022/05/04 21:48:39;;;;;;;9.93;4.87;;;;;;;14.21;53.37;100942.28;5152471;56;1138976;-70
2022/05/04 21:53:44;;;;;;;10.00;4.30;;;;;;;14.21;53.37;100942.28;5215214;56;1139229;-70
2022/05/04 21:58:50;;;;;;;9.77;4.50;;;;;;;14.19;53.44;100949.09;5218367;56;1141012;-72
2022/05/04 22:03:56;;;;;;;11.37;4.70;;;;;;;14.16;53.49;100953.34;5218377;56;1139231;-73
2022/05/04 22:09:02;;;;;;;26.37;4.90;;;;;;;14.11;53.54;100952.88;5218521;56;1141112;-70
2022/05/04 22:14:08;;;;;;;6.30;4.37;;;;;;;14.11;53.28;100958.20;5218330;56;1141098;-72
2022/05/04 22:19:14;;;;;;;6.80;4.40;;;;;;;14.11;53.28;100958.20;5218219;56;1138927;-71
2022/05/04 22:24:20;;;;;;;8.83;5.60;;;;;;;14.09;53.70;100960.14;5186944;56;1139354;-74
2022/05/04 22:29:25;;;;;;;7.23;5.37;;;;;;;14.05;53.75;100958.22;5160906;56;1139005;-73
2022/05/04 22:34:31;;;;;;;6.17;4.50;;;;;;;14.01;53.86;100964.80;5132668;56;1138985;-71
2022/05/04 22:39:36;;;;;;;19.23;5.17;;;;;;;13.95;53.99;100960.47;5132492;57;1139022;-71
2022/05/04 22:44:42;;;;;;;12.37;5.10;;;;;;;13.86;54.12;100953.28;5132931;57;1141283;-71
2022/05/04 22:49:48;;;;;;;6.00;4.50;;;;;;;13.76;54.28;100945.70;5132554;57;1141081;-71
2022/05/04 22:54:55;;;;;;;7.23;4.80;;;;;;;13.69;54.54;100949.38;5132646;57;1138955;-73
2022/05/04 23:00:01;;;;;;;17.70;4.77;;;;;;;13.62;54.78;100955.68;5132594;57;1139283;-71
2022/05/04 23:05:07;;;;;;;14.90;5.10;;;;;;;13.57;55.00;100950.41;5132654;57;1141242;-73
2022/05/04 23:10:12;;;;;;;9.37;4.47;;;;;;;13.49;55.22;100947.53;5132768;57;1141266;-70
2022/05/04 23:16:03;;;;;;;14.00;5.03;;;;;;;13.45;55.43;100954.91;5132469;57;1139000;-74
2022/05/04 23:20:25;;;;;;;11.43;6.27;;;;;;;13.37;55.60;100954.70;5103145;57;1140544;-73
2022/05/04 23:25:31;;;;;;;9.63;5.87;;;;;;;13.28;56.25;100953.66;5077640;57;1141097;-73
2022/05/04 23:30:37;;;;;;;14.00;6.47;;;;;;;13.17;56.46;100958.14;5077584;57;1139046;-74
2022/05/04 23:35:43;;;;;;;14.20;5.67;;;;;;;13.08;56.46;100947.77;5114842;57;1141304;-71
2022/05/04 23:40:49;;;;;;;12.60;5.53;;;;;;;12.99;56.86;100942.70;5133842;57;1141036;-73
2022/05/04 23:45:54;;;;;;;9.57;5.87;;;;;;;12.91;56.84;100939.83;5150521;56;1141058;-72
2022/05/04 23:51:05;;;;;;;9.40;5.70;;;;;;;12.78;57.34;100936.48;5165054;56;1139066;-73
2022/05/04 23:56:12;;;;;;;15.10;7.03;;;;;;;12.69;57.57;100931.89;5164879;56;1139011;-73
